Little Rock AFB, Arkansas
Current Conditions -  °F | °C
As of 3:53 PM on Wednesday 22 Oct 2014 (Local Time) from KLIT Reporting Station
Clear Clear  
Wind Chill: 72°   Ceiling: Unl
Heat Index: 72°   Visibility: 10mi
Dew Point: 47°   Wind: 10mph
Humidity: 41%   Direction: 60°ENE
Pressure: 30.17"   Gusts: NA
Location:  34.73°N, 92.23°W
Report Text: KLIT 222053Z 06009KT 10SM CLR 22/08 A3017 RMK AO2 SLP217 T02220083 56021
Loading
Personal Weather Stations






























Interactive Weather Map
Tropical Storm Tracking
New forecast layout! Learn more

10-Day Weather Forecast

Advertisements
Track Severe Weather on mobile